sensor_id;sensor_type;location;lat;lon;timestamp;pressure;altitude;pressure_sealevel;temperature;humidity
30516;BME280;17297;54.022;10.760;2022-08-02T00:00:05;101814.06;;;18.66;55.42
30516;BME280;17297;54.022;10.760;2022-08-02T00:02:31;101808.00;;;18.64;55.55
30516;BME280;17297;54.022;10.760;2022-08-02T00:04:57;101812.59;;;18.64;55.61
30516;BME280;17297;54.022;10.760;2022-08-02T00:07:22;101812.81;;;18.62;55.63
30516;BME280;17297;54.022;10.760;2022-08-02T00:09:47;101814.13;;;18.60;55.56
30516;BME280;17297;54.022;10.760;2022-08-02T00:12:13;101810.75;;;18.58;55.64
30516;BME280;17297;54.022;10.760;2022-08-02T00:14:39;101811.22;;;18.55;55.62
30516;BME280;17297;54.022;10.760;2022-08-02T00:17:05;101821.28;;;18.54;55.59
30516;BME280;17297;54.022;10.760;2022-08-02T00:19:30;101807.66;;;18.54;55.87
30516;BME280;17297;54.022;10.760;2022-08-02T00:21:56;101816.03;;;18.53;55.60
30516;BME280;17297;54.022;10.760;2022-08-02T00:24:21;101816.25;;;18.51;55.82
30516;BME280;17297;54.022;10.760;2022-08-02T00:26:46;101814.81;;;18.49;55.61
30516;BME280;17297;54.022;10.760;2022-08-02T00:29:12;101822.34;;;18.46;55.63
30516;BME280;17297;54.022;10.760;2022-08-02T00:31:37;101813.59;;;18.44;55.78
30516;BME280;17297;54.022;10.760;2022-08-02T00:34:03;101817.34;;;18.43;55.98
30516;BME280;17297;54.022;10.760;2022-08-02T00:36:28;101820.06;;;18.43;55.96
30516;BME280;17297;54.022;10.760;2022-08-02T00:38:53;101826.59;;;18.42;55.95
30516;BME280;17297;54.022;10.760;2022-08-02T00:41:20;101818.03;;;18.39;56.12
30516;BME280;17297;54.022;10.760;2022-08-02T00:43:47;101820.94;;;18.37;56.03
30516;BME280;17297;54.022;10.760;2022-08-02T00:46:14;101819.50;;;18.35;56.06
30516;BME280;17297;54.022;10.760;2022-08-02T00:48:40;101823.28;;;18.34;56.08
30516;BME280;17297;54.022;10.760;2022-08-02T00:51:06;101820.78;;;18.32;56.22
30516;BME280;17297;54.022;10.760;2022-08-02T00:53:31;101823.50;;;18.32;56.32
30516;BME280;17297;54.022;10.760;2022-08-02T00:55:57;101824.78;;;18.30;56.47
30516;BME280;17297;54.022;10.760;2022-08-02T00:58:22;101832.31;;;18.28;56.24
30516;BME280;17297;54.022;10.760;2022-08-02T01:00:48;101827.09;;;18.26;56.65
30516;BME280;17297;54.022;10.760;2022-08-02T01:03:13;101827.53;;;18.23;56.60
30516;BME280;17297;54.022;10.760;2022-08-02T01:05:39;101825.84;;;18.22;56.46
30516;BME280;17297;54.022;10.760;2022-08-02T01:08:04;101830.69;;;18.20;56.50
30516;BME280;17297;54.022;10.760;2022-08-02T01:10:30;101820.84;;;18.19;56.76
30516;BME280;17297;54.022;10.760;2022-08-02T01:12:55;101826.72;;;18.16;56.64
30516;BME280;17297;54.022;10.760;2022-08-02T01:15:21;101827.78;;;18.15;56.84
30516;BME280;17297;54.022;10.760;2022-08-02T01:17:55;101826.31;;;18.12;56.89
30516;BME280;17297;54.022;10.760;2022-08-02T01:21:14;101829.28;;;18.11;56.58
30516;BME280;17297;54.022;10.760;2022-08-02T01:24:20;101833.47;;;18.07;56.61
30516;BME280;17297;54.022;10.760;2022-08-02T01:27:00;101838.50;;;18.03;56.63
30516;BME280;17297;54.022;10.760;2022-08-02T01:29:39;101828.06;;;18.00;56.84
30516;BME280;17297;54.022;10.760;2022-08-02T01:32:12;101834.56;;;17.99;56.82
30516;BME280;17297;54.022;10.760;2022-08-02T01:37:19;101833.31;;;17.95;56.90
30516;BME280;17297;54.022;10.760;2022-08-02T01:39:50;101837.94;;;17.94;57.25
30516;BME280;17297;54.022;10.760;2022-08-02T01:42:20;101838.13;;;17.93;57.09
30516;BME280;17297;54.022;10.760;2022-08-02T01:44:49;101838.38;;;17.91;57.21
30516;BME280;17297;54.022;10.760;2022-08-02T01:47:20;101827.69;;;17.90;57.32
30516;BME280;17297;54.022;10.760;2022-08-02T01:49:50;101836.06;;;17.88;57.23
30516;BME280;17297;54.022;10.760;2022-08-02T01:52:16;101836.91;;;17.89;57.22
30516;BME280;17297;54.022;10.760;2022-08-02T01:54:48;101838.16;;;17.86;57.14
30516;BME280;17297;54.022;10.760;2022-08-02T01:57:14;101847.41;;;17.85;57.21
30516;BME280;17297;54.022;10.760;2022-08-02T01:59:41;101844.88;;;17.84;57.16
30516;BME280;17297;54.022;10.760;2022-08-02T02:02:08;101839.84;;;17.81;57.43
30516;BME280;17297;54.022;10.760;2022-08-02T02:04:35;101841.94;;;17.78;57.54
30516;BME280;17297;54.022;10.760;2022-08-02T02:07:03;101843.19;;;17.76;57.46
30516;BME280;17297;54.022;10.760;2022-08-02T02:09:34;101842.56;;;17.74;57.33
30516;BME280;17297;54.022;10.760;2022-08-02T02:12:02;101843.00;;;17.71;57.59
30516;BME280;17297;54.022;10.760;2022-08-02T02:14:28;101844.06;;;17.70;57.66
30516;BME280;17297;54.022;10.760;2022-08-02T02:16:55;101847.81;;;17.69;57.40
30516;BME280;17297;54.022;10.760;2022-08-02T02:19:23;101842.78;;;17.66;57.55
30516;BME280;17297;54.022;10.760;2022-08-02T02:21:49;101854.72;;;17.65;57.36
30516;BME280;17297;54.022;10.760;2022-08-02T02:24:15;101848.66;;;17.63;57.57
30516;BME280;17297;54.022;10.760;2022-08-02T02:26:41;101848.88;;;17.61;57.46
30516;BME280;17297;54.022;10.760;2022-08-02T02:29:09;101855.59;;;17.59;57.67
30516;BME280;17297;54.022;10.760;2022-08-02T02:31:37;101844.06;;;17.57;57.67
30516;BME280;17297;54.022;10.760;2022-08-02T02:34:08;101855.19;;;17.55;57.67
30516;BME280;17297;54.022;10.760;2022-08-02T02:36:36;101845.34;;;17.54;57.46
30516;BME280;17297;54.022;10.760;2022-08-02T02:39:05;101857.50;;;17.51;57.74
30516;BME280;17297;54.022;10.760;2022-08-02T02:41:31;101848.69;;;17.49;57.72
30516;BME280;17297;54.022;10.760;2022-08-02T02:44:00;101855.38;;;17.47;57.74
30516;BME280;17297;54.022;10.760;2022-08-02T02:46:29;101842.22;;;17.44;57.72
30516;BME280;17297;54.022;10.760;2022-08-02T02:48:55;101838.88;;;17.42;57.71
30516;BME280;17297;54.022;10.760;2022-08-02T02:51:21;101840.16;;;17.39;57.76
30516;BME280;17297;54.022;10.760;2022-08-02T02:53:49;101833.44;;;17.35;57.91
30516;BME280;17297;54.022;10.760;2022-08-02T02:56:16;101822.78;;;17.34;57.96
30516;BME280;17297;54.022;10.760;2022-08-02T02:58:43;101826.56;;;17.33;57.94
30516;BME280;17297;54.022;10.760;2022-08-02T03:01:09;101818.59;;;17.31;58.09
30516;BME280;17297;54.022;10.760;2022-08-02T03:03:59;101818.19;;;17.27;57.92
30516;BME280;17297;54.022;10.760;2022-08-02T03:06:25;101826.56;;;17.26;58.09
30516;BME280;17297;54.022;10.760;2022-08-02T03:08:51;101826.78;;;17.24;57.98
30516;BME280;17297;54.022;10.760;2022-08-02T03:11:17;101816.94;;;17.23;58.15
30516;BME280;17297;54.022;10.760;2022-08-02T03:13:42;101817.38;;;17.20;58.25
30516;BME280;17297;54.022;10.760;2022-08-02T03:16:10;101817.56;;;17.19;58.06
30516;BME280;17297;54.022;10.760;2022-08-02T03:18:40;101810.66;;;17.16;58.21
30516;BME280;17297;54.022;10.760;2022-08-02T03:21:12;101807.53;;;17.13;58.14
30516;BME280;17297;54.022;10.760;2022-08-02T03:23:39;101808.59;;;17.12;58.14
30516;BME280;17297;54.022;10.760;2022-08-02T03:26:06;101807.97;;;17.09;58.26
30516;BME280;17297;54.022;10.760;2022-08-02T03:28:32;101803.56;;;17.08;58.14
30516;BME280;17297;54.022;10.760;2022-08-02T03:30:58;101809.44;;;17.05;58.30
30516;BME280;17297;54.022;10.760;2022-08-02T03:33:24;101800.63;;;17.03;58.16
30516;BME280;17297;54.022;10.760;2022-08-02T03:35:51;101798.16;;;17.02;58.36
30516;BME280;17297;54.022;10.760;2022-08-02T03:38:18;101798.16;;;17.02;58.50
30516;BME280;17297;54.022;10.760;2022-08-02T03:40:46;101800.03;;;17.01;58.44
30516;BME280;17297;54.022;10.760;2022-08-02T03:43:12;101807.13;;;17.02;58.50
30516;BME280;17297;54.022;10.760;2022-08-02T03:45:39;101808.19;;;17.01;58.33
30516;BME280;17297;54.022;10.760;2022-08-02T03:48:07;101809.22;;;17.00;58.37
30516;BME280;17297;54.022;10.760;2022-08-02T03:50:33;101813.81;;;17.00;58.55
30516;BME280;17297;54.022;10.760;2022-08-02T03:53:00;101814.66;;;17.00;58.49
30516;BME280;17297;54.022;10.760;2022-08-02T03:55:26;101810.28;;;16.99;58.54
30516;BME280;17297;54.022;10.760;2022-08-02T03:57:52;101816.53;;;17.00;58.42
30516;BME280;17297;54.022;10.760;2022-08-02T04:00:19;101816.53;;;17.00;58.64
30516;BME280;17297;54.022;10.760;2022-08-02T04:02:45;101812.78;;;17.01;58.67
30516;BME280;17297;54.022;10.760;2022-08-02T04:05:11;101817.38;;;17.00;58.75
30516;BME280;17297;54.022;10.760;2022-08-02T04:07:37;101816.53;;;17.00;58.50
30516;BME280;17297;54.022;10.760;2022-08-02T04:10:03;101820.09;;;17.00;58.42
30516;BME280;17297;54.022;10.760;2022-08-02T04:12:29;101816.53;;;17.00;58.42
30516;BME280;17297;54.022;10.760;2022-08-02T04:14:54;101813.81;;;17.00;58.35
30516;BME280;17297;54.022;10.760;2022-08-02T04:17:22;101807.56;;;16.99;58.49
30516;BME280;17297;54.022;10.760;2022-08-02T04:19:50;101810.50;;;16.98;58.55
30516;BME280;17297;54.022;10.760;2022-08-02T04:22:22;101805.25;;;16.96;58.44
30516;BME280;17297;54.022;10.760;2022-08-02T04:24:51;101809.84;;;16.96;58.31
30516;BME280;17297;54.022;10.760;2022-08-02T04:27:21;101811.53;;;16.97;58.60
30516;BME280;17297;54.022;10.760;2022-08-02T04:29:47;101818.44;;;16.99;58.51
30516;BME280;17297;54.022;10.760;2022-08-02T04:32:14;101810.69;;;17.03;58.74
30516;BME280;17297;54.022;10.760;2022-08-02T04:34:42;101814.88;;;17.05;58.60
30516;BME280;17297;54.022;10.760;2022-08-02T04:37:08;101817.38;;;17.07;58.69
30516;BME280;17297;54.022;10.760;2022-08-02T04:39:35;101810.69;;;17.09;58.65
30516;BME280;17297;54.022;10.760;2022-08-02T04:42:00;101816.13;;;17.09;58.74
30516;BME280;17297;54.022;10.760;2022-08-02T04:44:26;101816.13;;;17.09;58.58
30516;BME280;17297;54.022;10.760;2022-08-02T04:46:51;101814.22;;;17.10;58.67
30516;BME280;17297;54.022;10.760;2022-08-02T04:49:17;101822.38;;;17.10;58.77
30516;BME280;17297;54.022;10.760;2022-08-02T04:51:42;101825.09;;;17.10;58.84
30516;BME280;17297;54.022;10.760;2022-08-02T04:54:09;101823.25;;;17.11;58.75
30516;BME280;17297;54.022;10.760;2022-08-02T04:56:35;101825.72;;;17.12;58.90
30516;BME280;17297;54.022;10.760;2022-08-02T04:59:00;101829.91;;;17.15;58.94
30516;BME280;17297;54.022;10.760;2022-08-02T05:01:26;101825.13;;;17.17;58.83
30516;BME280;17297;54.022;10.760;2022-08-02T05:03:51;101831.56;;;17.22;58.99
30516;BME280;17297;54.022;10.760;2022-08-02T05:06:17;101833.88;;;17.32;58.81
30516;BME280;17297;54.022;10.760;2022-08-02T05:08:44;101832.41;;;17.43;58.96
30516;BME280;17297;54.022;10.760;2022-08-02T05:11:10;101838.63;;;17.57;58.99
30516;BME280;17297;54.022;10.760;2022-08-02T05:13:35;101831.88;;;17.72;58.87
30516;BME280;17297;54.022;10.760;2022-08-02T05:16:00;101823.06;;;17.90;58.80
30516;BME280;17297;54.022;10.760;2022-08-02T05:18:29;101812.66;;;18.19;58.30
30516;BME280;17297;54.022;10.760;2022-08-02T05:20:54;101808.78;;;18.40;58.13
30516;BME280;17297;54.022;10.760;2022-08-02T05:23:20;101814.13;;;18.60;58.04
30516;BME280;17297;54.022;10.760;2022-08-02T05:25:45;101820.84;;;18.89;57.46
30516;BME280;17297;54.022;10.760;2022-08-02T05:28:10;101829.44;;;19.11;57.17
30516;BME280;17297;54.022;10.760;2022-08-02T05:30:36;101836.50;;;19.19;57.08
30516;BME280;17297;54.022;10.760;2022-08-02T05:33:01;101828.94;;;19.21;56.91
30516;BME280;17297;54.022;10.760;2022-08-02T05:35:27;101831.22;;;19.24;57.04
30516;BME280;17297;54.022;10.760;2022-08-02T05:37:52;101834.06;;;19.54;56.94
30516;BME280;17297;54.022;10.760;2022-08-02T05:40:18;101829.69;;;19.90;56.48
30516;BME280;17297;54.022;10.760;2022-08-02T05:42:44;101833.47;;;20.07;56.29
30516;BME280;17297;54.022;10.760;2022-08-02T05:45:10;101834.69;;;20.11;55.75
30516;BME280;17297;54.022;10.760;2022-08-02T05:47:36;101834.31;;;20.07;55.74
30516;BME280;17297;54.022;10.760;2022-08-02T05:50:02;101837.13;;;20.01;55.49
30516;BME280;17297;54.022;10.760;2022-08-02T05:55:46;101837.22;;;19.76;55.91
30516;BME280;17297;54.022;10.760;2022-08-02T05:58:29;101836.06;;;19.65;56.07
30516;BME280;17297;54.022;10.760;2022-08-02T06:00:57;101840.38;;;19.54;56.07
30516;BME280;17297;54.022;10.760;2022-08-02T06:03:31;101834.59;;;19.44;56.50
30516;BME280;17297;54.022;10.760;2022-08-02T06:06:09;101844.97;;;19.35;56.59
30516;BME280;17297;54.022;10.760;2022-08-02T06:08:44;101843.59;;;19.26;56.68
30516;BME280;17297;54.022;10.760;2022-08-02T06:11:14;101843.78;;;19.25;56.55
30516;BME280;17297;54.022;10.760;2022-08-02T06:13:41;101855.00;;;19.17;56.67
30516;BME280;17297;54.022;10.760;2022-08-02T06:16:07;101844.97;;;19.10;56.91
30516;BME280;17297;54.022;10.760;2022-08-02T06:18:34;101841.88;;;19.07;56.95
30516;BME280;17297;54.022;10.760;2022-08-02T06:21:04;101841.47;;;19.03;57.09
30516;BME280;17297;54.022;10.760;2022-08-02T06:23:31;101845.25;;;19.02;57.17
30516;BME280;17297;54.022;10.760;2022-08-02T06:25:57;101841.69;;;19.02;56.99
30516;BME280;17297;54.022;10.760;2022-08-02T06:28:24;101846.09;;;19.03;57.09
30516;BME280;17297;54.022;10.760;2022-08-02T06:30:51;101853.00;;;19.05;57.38
30516;BME280;17297;54.022;10.760;2022-08-02T06:33:16;101865.28;;;19.14;57.26
30516;BME280;17297;54.022;10.760;2022-08-02T06:36:02;101849.31;;;19.18;57.43
30516;BME280;17297;54.022;10.760;2022-08-02T06:38:32;101844.25;;;19.22;57.33
30516;BME280;17297;54.022;10.760;2022-08-02T06:41:06;101838.13;;;19.26;57.14
30516;BME280;17297;54.022;10.760;2022-08-02T06:44:00;101831.16;;;19.30;57.04
30516;BME280;17297;54.022;10.760;2022-08-02T06:46:27;101834.88;;;19.36;56.82
30516;BME280;17297;54.022;10.760;2022-08-02T06:48:53;101830.50;;;19.53;56.76
30516;BME280;17297;54.022;10.760;2022-08-02T06:51:19;101817.75;;;19.72;56.66
30516;BME280;17297;54.022;10.760;2022-08-02T06:53:45;101807.94;;;19.83;56.27
30516;BME280;17297;54.022;10.760;2022-08-02T06:56:10;101808.84;;;19.95;56.29
30516;BME280;17297;54.022;10.760;2022-08-02T06:58:36;101815.19;;;20.38;56.15
30516;BME280;17297;54.022;10.760;2022-08-02T07:01:01;101826.41;;;21.02;55.78
30516;BME280;17297;54.022;10.760;2022-08-02T07:03:32;101820.44;;;21.75;54.70
30516;BME280;17297;54.022;10.760;2022-08-02T07:05:58;101827.25;;;22.42;53.72
30516;BME280;17297;54.022;10.760;2022-08-02T07:08:23;101833.25;;;23.01;53.10
30516;BME280;17297;54.022;10.760;2022-08-02T07:10:49;101836.78;;;23.52;51.99
30516;BME280;17297;54.022;10.760;2022-08-02T07:13:14;101833.69;;;23.87;52.01
30516;BME280;17297;54.022;10.760;2022-08-02T07:15:40;101831.16;;;24.08;50.91
30516;BME280;17297;54.022;10.760;2022-08-02T07:18:06;101825.28;;;24.21;50.85
30516;BME280;17297;54.022;10.760;2022-08-02T07:20:31;101834.66;;;24.25;50.13
30516;BME280;17297;54.022;10.760;2022-08-02T07:22:57;101834.81;;;24.13;49.56
30516;BME280;17297;54.022;10.760;2022-08-02T07:25:22;101834.91;;;23.96;49.30
30516;BME280;17297;54.022;10.760;2022-08-02T07:27:48;101828.00;;;23.72;49.82
30516;BME280;17297;54.022;10.760;2022-08-02T07:30:13;101827.13;;;23.49;49.64
30516;BME280;17297;54.022;10.760;2022-08-02T07:32:39;101826.56;;;23.31;49.48
30516;BME280;17297;54.022;10.760;2022-08-02T07:35:05;101819.44;;;23.13;49.54
30516;BME280;17297;54.022;10.760;2022-08-02T07:37:32;101830.75;;;22.99;49.28
30516;BME280;17297;54.022;10.760;2022-08-02T07:39:58;101819.84;;;22.88;49.50
30516;BME280;17297;54.022;10.760;2022-08-02T07:42:24;101813.59;;;22.75;49.44
30516;BME280;17297;54.022;10.760;2022-08-02T07:44:50;101810.44;;;22.67;49.58
30516;BME280;17297;54.022;10.760;2022-08-02T07:47:16;101820.97;;;22.58;49.63
30516;BME280;17297;54.022;10.760;2022-08-02T07:49:43;101816.72;;;22.50;49.84
30516;BME280;17297;54.022;10.760;2022-08-02T07:52:08;101813.06;;;22.45;50.09
30516;BME280;17297;54.022;10.760;2022-08-02T07:54:33;101820.34;;;22.39;50.00
30516;BME280;17297;54.022;10.760;2022-08-02T07:56:59;101826.31;;;22.36;49.98
30516;BME280;17297;54.022;10.760;2022-08-02T07:59:25;101829.56;;;22.33;50.09
30516;BME280;17297;54.022;10.760;2022-08-02T08:01:51;101823.75;;;22.29;50.05
30516;BME280;17297;54.022;10.760;2022-08-02T08:04:17;101819.34;;;22.28;50.00
30516;BME280;17297;54.022;10.760;2022-08-02T08:06:43;101823.41;;;22.26;50.03
30516;BME280;17297;54.022;10.760;2022-08-02T08:09:09;101824.50;;;22.25;49.90
30516;BME280;17297;54.022;10.760;2022-08-02T08:11:35;101824.97;;;22.22;49.44
30516;BME280;17297;54.022;10.760;2022-08-02T08:14:00;101820.00;;;22.19;49.58
30516;BME280;17297;54.022;10.760;2022-08-02T08:16:26;101809.47;;;22.16;49.02
30516;BME280;17297;54.022;10.760;2022-08-02T08:18:54;101809.97;;;22.12;48.97
30516;BME280;17297;54.022;10.760;2022-08-02T08:21:19;101813.19;;;22.09;48.89
30516;BME280;17297;54.022;10.760;2022-08-02T08:23:45;101812.84;;;22.06;48.93
30516;BME280;17297;54.022;10.760;2022-08-02T08:26:10;101817.97;;;22.02;48.88
30516;BME280;17297;54.022;10.760;2022-08-02T08:28:35;101813.22;;;21.98;49.23
30516;BME280;17297;54.022;10.760;2022-08-02T08:31:01;101801.69;;;21.96;48.87
30516;BME280;17297;54.022;10.760;2022-08-02T08:33:26;101796.69;;;21.92;49.14
30516;BME280;17297;54.022;10.760;2022-08-02T08:35:52;101794.91;;;21.86;49.11
30516;BME280;17297;54.022;10.760;2022-08-02T08:38:18;101786.97;;;21.85;48.82
30516;BME280;17297;54.022;10.760;2022-08-02T08:40:44;101772.44;;;21.84;48.49
30516;BME280;17297;54.022;10.760;2022-08-02T08:43:14;101782.56;;;21.84;48.35
30516;BME280;17297;54.022;10.760;2022-08-02T08:45:42;101770.28;;;21.86;48.29
30516;BME280;17297;54.022;10.760;2022-08-02T08:48:13;101763.97;;;21.86;48.35
30516;BME280;17297;54.022;10.760;2022-08-02T08:50:49;101765.16;;;21.90;48.32
30516;BME280;17297;54.022;10.760;2022-08-02T08:53:18;101770.63;;;21.90;47.59
30516;BME280;17297;54.022;10.760;2022-08-02T08:55:47;101769.78;;;21.89;47.28
30516;BME280;17297;54.022;10.760;2022-08-02T08:58:12;101771.47;;;21.90;47.37
30516;BME280;17297;54.022;10.760;2022-08-02T09:00:38;101769.88;;;21.95;47.48
30516;BME280;17297;54.022;10.760;2022-08-02T09:03:08;101774.41;;;22.01;47.65
30516;BME280;17297;54.022;10.760;2022-08-02T09:05:34;101769.50;;;22.03;47.57
30516;BME280;17297;54.022;10.760;2022-08-02T09:08:02;101760.81;;;22.06;47.56
30516;BME280;17297;54.022;10.760;2022-08-02T09:10:31;101753.16;;;22.08;47.54
30516;BME280;17297;54.022;10.760;2022-08-02T09:13:17;101754.84;;;22.09;47.49
30516;BME280;17297;54.022;10.760;2022-08-02T09:15:51;101740.66;;;22.12;46.64
30516;BME280;17297;54.022;10.760;2022-08-02T09:18:17;101750.66;;;22.18;46.94
30516;BME280;17297;54.022;10.760;2022-08-02T09:20:57;101748.81;;;22.24;46.80
30516;BME280;17297;54.022;10.760;2022-08-02T09:23:23;101752.47;;;22.29;46.89
30516;BME280;17297;54.022;10.760;2022-08-02T09:25:57;101743.28;;;22.35;46.42
30516;BME280;17297;54.022;10.760;2022-08-02T09:28:31;101747.75;;;22.42;46.95
30516;BME280;17297;54.022;10.760;2022-08-02T09:31:04;101747.03;;;22.46;46.25
30516;BME280;17297;54.022;10.760;2022-08-02T09:33:30;101738.31;;;22.49;45.86
30516;BME280;17297;54.022;10.760;2022-08-02T09:36:06;101740.19;;;22.49;46.24
30516;BME280;17297;54.022;10.760;2022-08-02T09:38:34;101731.97;;;22.49;45.40
30516;BME280;17297;54.022;10.760;2022-08-02T09:41:01;101734.16;;;22.47;45.50
30516;BME280;17297;54.022;10.760;2022-08-02T09:43:42;101736.06;;;22.46;45.33
30516;BME280;17297;54.022;10.760;2022-08-02T09:46:21;101730.09;;;22.49;45.26
30516;BME280;17297;54.022;10.760;2022-08-02T09:48:54;101738.38;;;22.54;45.16
30516;BME280;17297;54.022;10.760;2022-08-02T09:51:34;101728.56;;;22.58;44.48
30516;BME280;17297;54.022;10.760;2022-08-02T09:54:07;101729.75;;;22.63;44.66
30516;BME280;17297;54.022;10.760;2022-08-02T09:57:00;101727.91;;;22.68;45.05
30516;BME280;17297;54.022;10.760;2022-08-02T09:59:26;101733.13;;;22.70;44.57
30516;BME280;17297;54.022;10.760;2022-08-02T10:01:53;101733.22;;;22.75;44.94
30516;BME280;17297;54.022;10.760;2022-08-02T10:04:21;101728.06;;;22.78;44.35
30516;BME280;17297;54.022;10.760;2022-08-02T10:06:48;101733.88;;;22.82;44.59
30516;BME280;17297;54.022;10.760;2022-08-02T10:09:14;101738.63;;;22.87;44.62
30516;BME280;17297;54.022;10.760;2022-08-02T10:11:40;101732.38;;;22.91;44.67
30516;BME280;17297;54.022;10.760;2022-08-02T10:14:08;101725.31;;;22.95;44.76
30516;BME280;17297;54.022;10.760;2022-08-02T10:16:42;101716.84;;;22.97;44.70
30516;BME280;17297;54.022;10.760;2022-08-02T10:19:07;101717.19;;;23.00;44.03
30516;BME280;17297;54.022;10.760;2022-08-02T10:21:44;101723.25;;;23.02;44.95
30516;BME280;17297;54.022;10.760;2022-08-02T10:24:18;101728.78;;;23.08;44.92
30516;BME280;17297;54.022;10.760;2022-08-02T10:26:46;101729.13;;;23.11;44.24
30516;BME280;17297;54.022;10.760;2022-08-02T10:29:19;101724.22;;;23.13;43.63
30516;BME280;17297;54.022;10.760;2022-08-02T10:31:53;101729.69;;;23.13;44.19
30516;BME280;17297;54.022;10.760;2022-08-02T10:34:23;101727.53;;;23.15;43.50
30516;BME280;17297;54.022;10.760;2022-08-02T10:36:51;101717.97;;;23.18;43.59
30516;BME280;17297;54.022;10.760;2022-08-02T10:39:17;101705.09;;;23.18;42.91
30516;BME280;17297;54.022;10.760;2022-08-02T10:41:48;101704.25;;;23.18;42.89
30516;BME280;17297;54.022;10.760;2022-08-02T10:46:50;101703.75;;;23.21;43.18
30516;BME280;17297;54.022;10.760;2022-08-02T10:49:18;101705.72;;;23.25;43.14
30516;BME280;17297;54.022;10.760;2022-08-02T10:54:28;101700.34;;;23.36;43.23
30516;BME280;17297;54.022;10.760;2022-08-02T10:56:58;101688.63;;;23.40;43.23
30516;BME280;17297;54.022;10.760;2022-08-02T10:59:31;101688.09;;;23.43;43.04
30516;BME280;17297;54.022;10.760;2022-08-02T11:01:59;101687.31;;;23.48;42.99
30516;BME280;17297;54.022;10.760;2022-08-02T11:07:20;101675.91;;;23.56;43.36
30516;BME280;17297;54.022;10.760;2022-08-02T11:09:55;101675.09;;;23.61;42.82
30516;BME280;17297;54.022;10.760;2022-08-02T11:12:21;101670.78;;;23.65;42.40
30516;BME280;17297;54.022;10.760;2022-08-02T11:15:01;101676.28;;;23.65;42.60
30516;BME280;17297;54.022;10.760;2022-08-02T11:17:54;101672.16;;;23.67;42.77
30516;BME280;17297;54.022;10.760;2022-08-02T11:20:21;101665.09;;;23.71;42.23
30516;BME280;17297;54.022;10.760;2022-08-02T11:22:48;101662.91;;;23.73;42.33
30516;BME280;17297;54.022;10.760;2022-08-02T11:30:17;101656.72;;;23.83;41.66
30516;BME280;17297;54.022;10.760;2022-08-02T11:32:43;101662.75;;;23.85;41.57
30516;BME280;17297;54.022;10.760;2022-08-02T11:35:09;101658.66;;;23.88;42.05
30516;BME280;17297;54.022;10.760;2022-08-02T11:37:39;101657.31;;;23.90;40.84
30516;BME280;17297;54.022;10.760;2022-08-02T11:40:11;101655.69;;;23.94;40.77
30516;BME280;17297;54.022;10.760;2022-08-02T11:42:39;101654.09;;;23.98;40.52
30516;BME280;17297;54.022;10.760;2022-08-02T11:45:08;101648.06;;;24.02;40.55
30516;BME280;17297;54.022;10.760;2022-08-02T11:47:53;101643.72;;;24.06;40.62
30516;BME280;17297;54.022;10.760;2022-08-02T11:50:21;101649.53;;;24.09;40.59
30516;BME280;17297;54.022;10.760;2022-08-02T11:52:50;101646.25;;;24.12;40.51
30516;BME280;17297;54.022;10.760;2022-08-02T11:55:25;101645.72;;;24.15;40.03
30516;BME280;17297;54.022;10.760;2022-08-02T11:58:02;101638.88;;;24.18;40.40
30516;BME280;17297;54.022;10.760;2022-08-02T12:00:28;101629.53;;;24.19;39.89
30516;BME280;17297;54.022;10.760;2022-08-02T12:02:53;101632.84;;;24.21;40.02
30516;BME280;17297;54.022;10.760;2022-08-02T12:05:21;101640.59;;;24.24;40.22
30516;BME280;17297;54.022;10.760;2022-08-02T12:07:50;101626.84;;;24.24;39.51
30516;BME280;17297;54.022;10.760;2022-08-02T12:10:20;101633.97;;;24.25;39.85
30516;BME280;17297;54.022;10.760;2022-08-02T12:12:50;101628.19;;;24.27;39.76
30516;BME280;17297;54.022;10.760;2022-08-02T12:15:30;101620.53;;;24.29;40.25
30516;BME280;17297;54.022;10.760;2022-08-02T12:17:56;101615.59;;;24.31;39.59
30516;BME280;17297;54.022;10.760;2022-08-02T12:20:40;101622.50;;;24.33;40.13
30516;BME280;17297;54.022;10.760;2022-08-02T12:23:05;101622.22;;;24.35;40.14
30516;BME280;17297;54.022;10.760;2022-08-02T12:25:31;101620.31;;;24.35;39.82
30516;BME280;17297;54.022;10.760;2022-08-02T12:28:21;101611.81;;;24.37;40.58
30516;BME280;17297;54.022;10.760;2022-08-02T12:33:19;101604.09;;;24.39;39.67
30516;BME280;17297;54.022;10.760;2022-08-02T12:35:44;101606.59;;;24.40;39.67
30516;BME280;17297;54.022;10.760;2022-08-02T12:38:10;101602.19;;;24.39;39.37
30516;BME280;17297;54.022;10.760;2022-08-02T12:40:36;101600.03;;;24.41;39.38
30516;BME280;17297;54.022;10.760;2022-08-02T12:43:05;101603.94;;;24.46;39.09
30516;BME280;17297;54.022;10.760;2022-08-02T12:45:43;101596.78;;;24.50;39.17
30516;BME280;17297;54.022;10.760;2022-08-02T12:48:09;101602.31;;;24.55;39.22
30516;BME280;17297;54.022;10.760;2022-08-02T12:50:35;101602.63;;;24.58;38.68
30516;BME280;17297;54.022;10.760;2022-08-02T12:53:13;101598.50;;;24.61;39.62
30516;BME280;17297;54.022;10.760;2022-08-02T12:56:06;101597.13;;;24.63;40.13
30516;BME280;17297;54.022;10.760;2022-08-02T12:58:47;101592.19;;;24.65;39.96
30516;BME280;17297;54.022;10.760;2022-08-02T13:01:19;101592.25;;;24.71;40.17
30516;BME280;17297;54.022;10.760;2022-08-02T13:03:45;101599.09;;;24.73;40.50
30516;BME280;17297;54.022;10.760;2022-08-02T13:06:10;101592.25;;;24.76;40.21
30516;BME280;17297;54.022;10.760;2022-08-02T13:08:37;101586.22;;;24.79;40.53